sensor_id;sensor_type;location;lat;lon;timestamp;temperature;humidity
21608;DHT22;10966;51.076;3.782;2022-07-03T00:01:57;18.20;99.90
21608;DHT22;10966;51.076;3.782;2022-07-03T00:04:22;18.00;99.90
21608;DHT22;10966;51.076;3.782;2022-07-03T00:06:48;18.00;99.90
21608;DHT22;10966;51.076;3.782;2022-07-03T00:09:14;18.00;99.90
21608;DHT22;10966;51.076;3.782;2022-07-03T00:11:40;18.20;99.90
21608;DHT22;10966;51.076;3.782;2022-07-03T00:14:06;18.10;99.90
21608;DHT22;10966;51.076;3.782;2022-07-03T00:16:32;17.90;99.90
21608;DHT22;10966;51.076;3.782;2022-07-03T00:18:58;17.80;99.90
21608;DHT22;10966;51.076;3.782;2022-07-03T00:21:34;17.80;99.90
21608;DHT22;10966;51.076;3.782;2022-07-03T00:24:25;17.80;99.90
21608;DHT22;10966;51.076;3.782;2022-07-03T00:26:52;17.70;99.90
21608;DHT22;10966;51.076;3.782;2022-07-03T00:29:22;17.50;99.90
21608;DHT22;10966;51.076;3.782;2022-07-03T00:31:48;17.30;99.90
21608;DHT22;10966;51.076;3.782;2022-07-03T00:34:16;17.40;99.90
21608;DHT22;10966;51.076;3.782;2022-07-03T00:36:42;17.30;99.90
21608;DHT22;10966;51.076;3.782;2022-07-03T00:39:10;17.40;99.90
21608;DHT22;10966;51.076;3.782;2022-07-03T00:41:36;17.50;99.90
21608;DHT22;10966;51.076;3.782;2022-07-03T00:44:03;17.60;99.90
21608;DHT22;10966;51.076;3.782;2022-07-03T00:46:29;17.60;99.90
21608;DHT22;10966;51.076;3.782;2022-07-03T00:48:56;17.40;99.90
21608;DHT22;10966;51.076;3.782;2022-07-03T00:51:25;17.50;99.90
21608;DHT22;10966;51.076;3.782;2022-07-03T00:53:58;17.50;99.90
21608;DHT22;10966;51.076;3.782;2022-07-03T00:56:28;17.50;99.90
21608;DHT22;10966;51.076;3.782;2022-07-03T00:58:57;17.60;99.90
21608;DHT22;10966;51.076;3.782;2022-07-03T01:01:29;17.70;99.90
21608;DHT22;10966;51.076;3.782;2022-07-03T01:06:34;17.80;99.90
21608;DHT22;10966;51.076;3.782;2022-07-03T01:09:03;18.00;99.90
21608;DHT22;10966;51.076;3.782;2022-07-03T01:11:54;18.00;99.90
21608;DHT22;10966;51.076;3.782;2022-07-03T01:14:44;17.90;99.90
21608;DHT22;10966;51.076;3.782;2022-07-03T01:17:25;18.00;99.90
21608;DHT22;10966;51.076;3.782;2022-07-03T01:20:06;17.90;99.90
21608;DHT22;10966;51.076;3.782;2022-07-03T01:22:42;17.70;99.90
21608;DHT22;10966;51.076;3.782;2022-07-03T01:28:04;17.40;99.90
21608;DHT22;10966;51.076;3.782;2022-07-03T01:30:35;17.30;99.90
21608;DHT22;10966;51.076;3.782;2022-07-03T01:33:16;17.10;99.90
21608;DHT22;10966;51.076;3.782;2022-07-03T01:35:58;17.00;99.90
21608;DHT22;10966;51.076;3.782;2022-07-03T01:38:27;17.10;99.90
21608;DHT22;10966;51.076;3.782;2022-07-03T01:40:54;17.20;99.90
21608;DHT22;10966;51.076;3.782;2022-07-03T01:43:27;17.10;99.90
21608;DHT22;10966;51.076;3.782;2022-07-03T01:45:53;17.10;99.90
21608;DHT22;10966;51.076;3.782;2022-07-03T01:48:21;17.10;99.90
21608;DHT22;10966;51.076;3.782;2022-07-03T01:50:49;17.00;99.90
21608;DHT22;10966;51.076;3.782;2022-07-03T01:53:16;16.90;99.90
21608;DHT22;10966;51.076;3.782;2022-07-03T01:55:42;17.10;99.90
21608;DHT22;10966;51.076;3.782;2022-07-03T01:58:09;17.00;99.90
21608;DHT22;10966;51.076;3.782;2022-07-03T02:01:02;17.00;99.90
21608;DHT22;10966;51.076;3.782;2022-07-03T02:03:31;16.90;99.90
21608;DHT22;10966;51.076;3.782;2022-07-03T02:06:11;16.80;99.90
21608;DHT22;10966;51.076;3.782;2022-07-03T02:08:45;16.90;99.90
21608;DHT22;10966;51.076;3.782;2022-07-03T02:11:16;17.10;99.90
21608;DHT22;10966;51.076;3.782;2022-07-03T02:13:52;17.30;99.90
21608;DHT22;10966;51.076;3.782;2022-07-03T02:16:22;17.10;99.90
21608;DHT22;10966;51.076;3.782;2022-07-03T02:19:05;17.00;99.90
21608;DHT22;10966;51.076;3.782;2022-07-03T02:21:42;17.00;99.90
21608;DHT22;10966;51.076;3.782;2022-07-03T02:24:19;17.00;99.90
21608;DHT22;10966;51.076;3.782;2022-07-03T02:26:54;16.90;99.90
21608;DHT22;10966;51.076;3.782;2022-07-03T02:29:24;17.10;99.90
21608;DHT22;10966;51.076;3.782;2022-07-03T02:31:59;17.50;99.90
21608;DHT22;10966;51.076;3.782;2022-07-03T02:34:27;17.20;99.90
21608;DHT22;10966;51.076;3.782;2022-07-03T02:36:59;17.10;99.90
21608;DHT22;10966;51.076;3.782;2022-07-03T02:39:38;16.90;99.90
21608;DHT22;10966;51.076;3.782;2022-07-03T02:42:15;17.00;99.90
21608;DHT22;10966;51.076;3.782;2022-07-03T02:44:46;16.80;99.90
21608;DHT22;10966;51.076;3.782;2022-07-03T02:50:08;16.60;99.90
21608;DHT22;10966;51.076;3.782;2022-07-03T03:00:37;16.50;99.90
21608;DHT22;10966;51.076;3.782;2022-07-03T03:03:05;16.40;99.90
21608;DHT22;10966;51.076;3.782;2022-07-03T03:05:46;16.50;99.90
21608;DHT22;10966;51.076;3.782;2022-07-03T03:08:50;16.40;99.90
21608;DHT22;10966;51.076;3.782;2022-07-03T03:11:22;16.50;99.90
21608;DHT22;10966;51.076;3.782;2022-07-03T03:13:50;16.30;99.90
21608;DHT22;10966;51.076;3.782;2022-07-03T03:16:20;16.20;99.90
21608;DHT22;10966;51.076;3.782;2022-07-03T03:18:47;16.30;99.90
21608;DHT22;10966;51.076;3.782;2022-07-03T03:21:16;16.30;99.90
21608;DHT22;10966;51.076;3.782;2022-07-03T03:23:47;16.20;99.90
21608;DHT22;10966;51.076;3.782;2022-07-03T03:26:22;16.20;99.90
21608;DHT22;10966;51.076;3.782;2022-07-03T03:28:50;16.10;99.90
21608;DHT22;10966;51.076;3.782;2022-07-03T03:31:16;16.20;99.90
21608;DHT22;10966;51.076;3.782;2022-07-03T03:33:46;16.10;99.90
21608;DHT22;10966;51.076;3.782;2022-07-03T03:36:13;16.00;99.90
21608;DHT22;10966;51.076;3.782;2022-07-03T03:38:39;16.00;99.90
21608;DHT22;10966;51.076;3.782;2022-07-03T03:41:06;16.00;99.90
21608;DHT22;10966;51.076;3.782;2022-07-03T03:43:33;16.00;99.90
21608;DHT22;10966;51.076;3.782;2022-07-03T03:46:00;15.90;99.90
21608;DHT22;10966;51.076;3.782;2022-07-03T03:48:31;16.00;99.90
21608;DHT22;10966;51.076;3.782;2022-07-03T03:50:57;16.00;99.90
21608;DHT22;10966;51.076;3.782;2022-07-03T03:53:27;16.20;99.90
21608;DHT22;10966;51.076;3.782;2022-07-03T03:56:02;16.10;99.90
21608;DHT22;10966;51.076;3.782;2022-07-03T03:58:29;16.00;99.90
21608;DHT22;10966;51.076;3.782;2022-07-03T04:00:56;15.90;99.90
21608;DHT22;10966;51.076;3.782;2022-07-03T04:03:23;15.90;99.90
21608;DHT22;10966;51.076;3.782;2022-07-03T04:05:49;16.00;99.90
21608;DHT22;10966;51.076;3.782;2022-07-03T04:08:14;16.00;99.90
21608;DHT22;10966;51.076;3.782;2022-07-03T04:10:40;15.80;99.90
21608;DHT22;10966;51.076;3.782;2022-07-03T04:13:05;15.80;99.90
21608;DHT22;10966;51.076;3.782;2022-07-03T04:15:31;15.80;99.90
21608;DHT22;10966;51.076;3.782;2022-07-03T04:17:57;15.80;99.90
21608;DHT22;10966;51.076;3.782;2022-07-03T04:20:22;15.90;99.90
21608;DHT22;10966;51.076;3.782;2022-07-03T04:22:48;16.00;99.90
21608;DHT22;10966;51.076;3.782;2022-07-03T04:25:16;15.90;99.90
21608;DHT22;10966;51.076;3.782;2022-07-03T04:27:42;15.90;99.90
21608;DHT22;10966;51.076;3.782;2022-07-03T04:30:08;15.90;99.90
21608;DHT22;10966;51.076;3.782;2022-07-03T04:32:36;15.80;99.90
21608;DHT22;10966;51.076;3.782;2022-07-03T04:35:03;15.90;99.90
21608;DHT22;10966;51.076;3.782;2022-07-03T04:37:28;16.00;99.90
21608;DHT22;10966;51.076;3.782;2022-07-03T04:39:54;15.90;99.90
21608;DHT22;10966;51.076;3.782;2022-07-03T04:42:20;15.90;99.90
21608;DHT22;10966;51.076;3.782;2022-07-03T04:44:45;15.80;99.90
21608;DHT22;10966;51.076;3.782;2022-07-03T04:47:11;15.80;99.90
21608;DHT22;10966;51.076;3.782;2022-07-03T04:49:38;15.70;99.90
21608;DHT22;10966;51.076;3.782;2022-07-03T04:52:04;15.80;99.90
21608;DHT22;10966;51.076;3.782;2022-07-03T04:54:29;16.00;99.90
21608;DHT22;10966;51.076;3.782;2022-07-03T04:56:55;16.10;99.90
21608;DHT22;10966;51.076;3.782;2022-07-03T04:59:21;16.10;99.90
21608;DHT22;10966;51.076;3.782;2022-07-03T05:01:46;16.20;99.90
21608;DHT22;10966;51.076;3.782;2022-07-03T05:04:15;16.30;99.90
21608;DHT22;10966;51.076;3.782;2022-07-03T05:06:41;16.40;99.90
21608;DHT22;10966;51.076;3.782;2022-07-03T05:09:07;16.40;99.90
21608;DHT22;10966;51.076;3.782;2022-07-03T05:11:33;16.40;99.90
21608;DHT22;10966;51.076;3.782;2022-07-03T05:13:58;16.30;99.90
21608;DHT22;10966;51.076;3.782;2022-07-03T05:16:24;16.30;99.90
21608;DHT22;10966;51.076;3.782;2022-07-03T05:18:50;16.30;99.90
21608;DHT22;10966;51.076;3.782;2022-07-03T05:21:15;16.30;99.90
21608;DHT22;10966;51.076;3.782;2022-07-03T05:23:41;16.30;99.90
21608;DHT22;10966;51.076;3.782;2022-07-03T05:26:07;16.40;99.90
21608;DHT22;10966;51.076;3.782;2022-07-03T05:28:32;16.50;99.90
21608;DHT22;10966;51.076;3.782;2022-07-03T05:30:58;16.40;99.90
21608;DHT22;10966;51.076;3.782;2022-07-03T05:33:24;16.40;99.90
21608;DHT22;10966;51.076;3.782;2022-07-03T05:35:49;16.40;99.90
21608;DHT22;10966;51.076;3.782;2022-07-03T05:38:15;16.50;99.90
21608;DHT22;10966;51.076;3.782;2022-07-03T05:41:01;16.50;99.90
21608;DHT22;10966;51.076;3.782;2022-07-03T05:43:27;16.30;99.90
21608;DHT22;10966;51.076;3.782;2022-07-03T05:45:52;16.30;99.90
21608;DHT22;10966;51.076;3.782;2022-07-03T05:48:18;16.20;99.90
21608;DHT22;10966;51.076;3.782;2022-07-03T05:50:43;16.30;99.90
21608;DHT22;10966;51.076;3.782;2022-07-03T05:53:09;16.30;99.90
21608;DHT22;10966;51.076;3.782;2022-07-03T05:55:35;16.40;99.90
21608;DHT22;10966;51.076;3.782;2022-07-03T05:58:00;16.40;99.90
21608;DHT22;10966;51.076;3.782;2022-07-03T06:00:26;16.50;99.90
21608;DHT22;10966;51.076;3.782;2022-07-03T06:02:53;16.60;99.90
21608;DHT22;10966;51.076;3.782;2022-07-03T06:05:18;16.80;99.90
21608;DHT22;10966;51.076;3.782;2022-07-03T06:07:44;16.90;99.90
21608;DHT22;10966;51.076;3.782;2022-07-03T06:10:09;16.90;99.90
21608;DHT22;10966;51.076;3.782;2022-07-03T06:12:35;16.90;99.90
21608;DHT22;10966;51.076;3.782;2022-07-03T06:15:01;17.00;99.90
21608;DHT22;10966;51.076;3.782;2022-07-03T06:17:26;17.10;99.90
21608;DHT22;10966;51.076;3.782;2022-07-03T06:19:52;17.20;99.90
21608;DHT22;10966;51.076;3.782;2022-07-03T06:22:17;17.40;99.90
21608;DHT22;10966;51.076;3.782;2022-07-03T06:24:43;17.40;99.90
21608;DHT22;10966;51.076;3.782;2022-07-03T06:27:09;17.20;99.90
21608;DHT22;10966;51.076;3.782;2022-07-03T06:29:34;17.20;99.90
21608;DHT22;10966;51.076;3.782;2022-07-03T06:32:00;17.20;99.90
21608;DHT22;10966;51.076;3.782;2022-07-03T06:34:25;17.40;99.90
21608;DHT22;10966;51.076;3.782;2022-07-03T06:36:51;17.70;99.90
21608;DHT22;10966;51.076;3.782;2022-07-03T06:39:17;17.60;99.90
21608;DHT22;10966;51.076;3.782;2022-07-03T06:41:42;17.50;99.90
21608;DHT22;10966;51.076;3.782;2022-07-03T06:44:08;17.50;99.90
21608;DHT22;10966;51.076;3.782;2022-07-03T06:46:34;17.50;99.90
21608;DHT22;10966;51.076;3.782;2022-07-03T06:48:59;17.40;99.90
21608;DHT22;10966;51.076;3.782;2022-07-03T06:51:25;17.40;99.90
21608;DHT22;10966;51.076;3.782;2022-07-03T06:53:50;17.60;99.90
21608;DHT22;10966;51.076;3.782;2022-07-03T06:56:16;17.60;99.90
21608;DHT22;10966;51.076;3.782;2022-07-03T06:58:41;17.50;99.90
21608;DHT22;10966;51.076;3.782;2022-07-03T07:01:07;17.30;99.90
21608;DHT22;10966;51.076;3.782;2022-07-03T07:03:33;17.40;99.90
21608;DHT22;10966;51.076;3.782;2022-07-03T07:05:58;17.50;99.90
21608;DHT22;10966;51.076;3.782;2022-07-03T07:08:24;17.70;99.90
21608;DHT22;10966;51.076;3.782;2022-07-03T07:10:50;17.70;99.90
21608;DHT22;10966;51.076;3.782;2022-07-03T07:13:15;18.00;99.90
21608;DHT22;10966;51.076;3.782;2022-07-03T07:15:41;18.10;99.90
21608;DHT22;10966;51.076;3.782;2022-07-03T07:18:07;17.90;99.90
21608;DHT22;10966;51.076;3.782;2022-07-03T07:20:32;17.80;99.90
21608;DHT22;10966;51.076;3.782;2022-07-03T07:22:58;17.70;99.90
21608;DHT22;10966;51.076;3.782;2022-07-03T07:25:24;17.50;99.90
21608;DHT22;10966;51.076;3.782;2022-07-03T07:27:49;17.50;99.90
21608;DHT22;10966;51.076;3.782;2022-07-03T07:30:15;17.40;99.90
21608;DHT22;10966;51.076;3.782;2022-07-03T07:32:40;17.30;99.90
21608;DHT22;10966;51.076;3.782;2022-07-03T07:35:07;17.50;99.90
21608;DHT22;10966;51.076;3.782;2022-07-03T07:37:32;17.70;99.90
21608;DHT22;10966;51.076;3.782;2022-07-03T07:39:58;18.00;99.90
21608;DHT22;10966;51.076;3.782;2022-07-03T07:42:24;17.90;99.90
21608;DHT22;10966;51.076;3.782;2022-07-03T07:44:50;17.90;99.90
21608;DHT22;10966;51.076;3.782;2022-07-03T07:47:15;17.80;99.90
21608;DHT22;10966;51.076;3.782;2022-07-03T07:49:41;18.00;99.90
21608;DHT22;10966;51.076;3.782;2022-07-03T07:52:07;18.10;99.90
21608;DHT22;10966;51.076;3.782;2022-07-03T07:54:32;18.00;99.90
21608;DHT22;10966;51.076;3.782;2022-07-03T07:56:58;18.20;99.90
21608;DHT22;10966;51.076;3.782;2022-07-03T07:59:24;18.30;99.90
21608;DHT22;10966;51.076;3.782;2022-07-03T08:01:50;18.30;99.90
21608;DHT22;10966;51.076;3.782;2022-07-03T08:04:33;18.50;99.90
21608;DHT22;10966;51.076;3.782;2022-07-03T08:07:17;18.70;99.90
21608;DHT22;10966;51.076;3.782;2022-07-03T08:09:43;19.00;99.90
21608;DHT22;10966;51.076;3.782;2022-07-03T08:12:09;19.20;99.90
21608;DHT22;10966;51.076;3.782;2022-07-03T08:14:34;19.30;99.90
21608;DHT22;10966;51.076;3.782;2022-07-03T08:17:00;19.30;99.90
21608;DHT22;10966;51.076;3.782;2022-07-03T08:19:26;19.10;99.90
21608;DHT22;10966;51.076;3.782;2022-07-03T08:21:51;18.60;99.90
21608;DHT22;10966;51.076;3.782;2022-07-03T08:24:17;18.50;99.90
21608;DHT22;10966;51.076;3.782;2022-07-03T08:26:43;18.50;99.90
21608;DHT22;10966;51.076;3.782;2022-07-03T08:29:08;18.60;99.90
21608;DHT22;10966;51.076;3.782;2022-07-03T08:31:34;18.70;99.90
21608;DHT22;10966;51.076;3.782;2022-07-03T08:33:59;18.70;99.90
21608;DHT22;10966;51.076;3.782;2022-07-03T08:36:25;18.90;99.90
21608;DHT22;10966;51.076;3.782;2022-07-03T08:38:51;19.10;99.90
21608;DHT22;10966;51.076;3.782;2022-07-03T08:41:18;19.40;99.90
21608;DHT22;10966;51.076;3.782;2022-07-03T08:43:44;19.80;99.90
21608;DHT22;10966;51.076;3.782;2022-07-03T08:46:11;19.90;99.90
21608;DHT22;10966;51.076;3.782;2022-07-03T08:48:37;19.80;99.90
21608;DHT22;10966;51.076;3.782;2022-07-03T08:51:03;19.50;99.90
21608;DHT22;10966;51.076;3.782;2022-07-03T08:53:29;19.20;99.90
21608;DHT22;10966;51.076;3.782;2022-07-03T08:55:55;19.00;99.90
21608;DHT22;10966;51.076;3.782;2022-07-03T08:58:26;19.10;99.90
21608;DHT22;10966;51.076;3.782;2022-07-03T09:00:55;19.30;99.90
21608;DHT22;10966;51.076;3.782;2022-07-03T09:03:24;19.70;99.90
21608;DHT22;10966;51.076;3.782;2022-07-03T09:05:51;19.60;99.90
21608;DHT22;10966;51.076;3.782;2022-07-03T09:08:17;19.90;99.90
21608;DHT22;10966;51.076;3.782;2022-07-03T09:10:46;20.20;99.90
21608;DHT22;10966;51.076;3.782;2022-07-03T09:13:12;20.50;99.90
21608;DHT22;10966;51.076;3.782;2022-07-03T09:15:38;20.60;99.90
21608;DHT22;10966;51.076;3.782;2022-07-03T09:18:06;20.70;99.90
21608;DHT22;10966;51.076;3.782;2022-07-03T09:23:13;20.20;99.90
21608;DHT22;10966;51.076;3.782;2022-07-03T09:26:01;20.40;99.90
21608;DHT22;10966;51.076;3.782;2022-07-03T09:28:50;20.60;99.90
21608;DHT22;10966;51.076;3.782;2022-07-03T09:31:23;20.70;99.90
21608;DHT22;10966;51.076;3.782;2022-07-03T09:34:05;20.90;99.90
21608;DHT22;10966;51.076;3.782;2022-07-03T09:36:41;20.20;99.90
21608;DHT22;10966;51.076;3.782;2022-07-03T09:39:19;19.80;99.90
21608;DHT22;10966;51.076;3.782;2022-07-03T09:42:02;19.60;99.90
21608;DHT22;10966;51.076;3.782;2022-07-03T09:44:39;19.40;99.90
21608;DHT22;10966;51.076;3.782;2022-07-03T09:47:23;19.20;99.90
21608;DHT22;10966;51.076;3.782;2022-07-03T09:49:59;19.40;99.90
21608;DHT22;10966;51.076;3.782;2022-07-03T09:54:52;20.20;99.90
21608;DHT22;10966;51.076;3.782;2022-07-03T09:57:19;20.60;99.90
21608;DHT22;10966;51.076;3.782;2022-07-03T09:59:45;21.30;99.90
21608;DHT22;10966;51.076;3.782;2022-07-03T10:02:10;21.50;99.90
21608;DHT22;10966;51.076;3.782;2022-07-03T10:04:36;21.60;99.90
21608;DHT22;10966;51.076;3.782;2022-07-03T10:07:03;21.60;99.90
21608;DHT22;10966;51.076;3.782;2022-07-03T10:09:31;21.40;99.90
21608;DHT22;10966;51.076;3.782;2022-07-03T10:11:58;20.70;99.90
21608;DHT22;10966;51.076;3.782;2022-07-03T10:14:29;20.80;99.90
21608;DHT22;10966;51.076;3.782;2022-07-03T10:16:55;20.80;99.90
21608;DHT22;10966;51.076;3.782;2022-07-03T10:19:38;21.00;99.90
21608;DHT22;10966;51.076;3.782;2022-07-03T10:22:09;21.30;99.90
21608;DHT22;10966;51.076;3.782;2022-07-03T10:24:36;21.40;99.90
21608;DHT22;10966;51.076;3.782;2022-07-03T10:27:03;21.30;99.90
21608;DHT22;10966;51.076;3.782;2022-07-03T10:29:29;21.00;99.90
21608;DHT22;10966;51.076;3.782;2022-07-03T10:31:55;20.80;99.90
21608;DHT22;10966;51.076;3.782;2022-07-03T10:34:22;21.30;99.90
21608;DHT22;10966;51.076;3.782;2022-07-03T10:36:54;21.40;99.90
21608;DHT22;10966;51.076;3.782;2022-07-03T10:39:51;21.50;99.90
21608;DHT22;10966;51.076;3.782;2022-07-03T10:42:28;21.90;99.90
21608;DHT22;10966;51.076;3.782;2022-07-03T10:45:15;22.60;99.90
21608;DHT22;10966;51.076;3.782;2022-07-03T10:47:50;22.30;99.90
21608;DHT22;10966;51.076;3.782;2022-07-03T10:50:17;21.70;99.90
21608;DHT22;10966;51.076;3.782;2022-07-03T10:52:44;21.30;99.90
21608;DHT22;10966;51.076;3.782;2022-07-03T10:55:11;21.20;99.90
21608;DHT22;10966;51.076;3.782;2022-07-03T10:57:38;21.20;99.90
21608;DHT22;10966;51.076;3.782;2022-07-03T11:02:51;21.30;99.90
21608;DHT22;10966;51.076;3.782;2022-07-03T11:05:21;21.50;99.90
21608;DHT22;10966;51.076;3.782;2022-07-03T11:13:03;22.10;99.90
21608;DHT22;10966;51.076;3.782;2022-07-03T11:15:36;22.50;99.90
21608;DHT22;10966;51.076;3.782;2022-07-03T11:26:22;21.90;99.90
21608;DHT22;10966;51.076;3.782;2022-07-03T11:28:52;21.70;99.90
21608;DHT22;10966;51.076;3.782;2022-07-03T11:31:20;21.80;99.90
21608;DHT22;10966;51.076;3.782;2022-07-03T11:33:56;21.90;99.90
21608;DHT22;10966;51.076;3.782;2022-07-03T11:36:23;21.80;99.90
21608;DHT22;10966;51.076;3.782;2022-07-03T11:41:21;21.70;99.90
21608;DHT22;10966;51.076;3.782;2022-07-03T11:43:48;22.00;99.90
21608;DHT22;10966;51.076;3.782;2022-07-03T11:46:34;22.10;99.90
21608;DHT22;10966;51.076;3.782;2022-07-03T11:49:11;22.90;99.90
21608;DHT22;10966;51.076;3.782;2022-07-03T11:51:38;22.90;99.90
21608;DHT22;10966;51.076;3.782;2022-07-03T11:54:05;22.60;99.90
21608;DHT22;10966;51.076;3.782;2022-07-03T11:56:32;22.60;99.90
21608;DHT22;10966;51.076;3.782;2022-07-03T11:58:59;22.10;99.90
21608;DHT22;10966;51.076;3.782;2022-07-03T12:04:11;21.70;99.90
21608;DHT22;10966;51.076;3.782;2022-07-03T12:06:39;21.90;99.90
21608;DHT22;10966;51.076;3.782;2022-07-03T12:09:19;22.50;99.90
21608;DHT22;10966;51.076;3.782;2022-07-03T12:12:06;22.30;99.90
21608;DHT22;10966;51.076;3.782;2022-07-03T12:14:51;22.00;99.90
21608;DHT22;10966;51.076;3.782;2022-07-03T12:19:51;22.00;99.90
21608;DHT22;10966;51.076;3.782;2022-07-03T12:22:36;22.40;99.90
21608;DHT22;10966;51.076;3.782;2022-07-03T12:25:10;22.30;99.90
21608;DHT22;10966;51.076;3.782;2022-07-03T12:27:43;22.20;99.90
21608;DHT22;10966;51.076;3.782;2022-07-03T12:30:18;22.30;99.90
21608;DHT22;10966;51.076;3.782;2022-07-03T12:32:46;22.50;99.90
21608;DHT22;10966;51.076;3.782;2022-07-03T12:35:12;22.00;99.90
21608;DHT22;10966;51.076;3.782;2022-07-03T12:37:40;21.90;99.90
21608;DHT22;10966;51.076;3.782;2022-07-03T12:40:11;22.10;99.90
21608;DHT22;10966;51.076;3.782;2022-07-03T12:42:47;22.10;99.90
21608;DHT22;10966;51.076;3.782;2022-07-03T12:45:16;21.90;99.90
21608;DHT22;10966;51.076;3.782;2022-07-03T12:47:41;21.90;99.90
21608;DHT22;10966;51.076;3.782;2022-07-03T12:50:08;22.40;99.90
21608;DHT22;10966;51.076;3.782;2022-07-03T12:52:55;22.40;99.90
21608;DHT22;10966;51.076;3.782;2022-07-03T12:55:29;22.40;99.90
21608;DHT22;10966;51.076;3.782;2022-07-03T12:58:22;22.60;99.90
21608;DHT22;10966;51.076;3.782;2022-07-03T13:01:32;22.50;99.90
21608;DHT22;10966;51.076;3.782;2022-07-03T13:04:09;22.50;99.90
21608;DHT22;10966;51.076;3.782;2022-07-03T13:06:35;23.00;99.90
21608;DHT22;10966;51.076;3.782;2022-07-03T13:09:03;23.20;99.90
21608;DHT22;10966;51.076;3.782;2022-07-03T13:14:10;23.20;99.90
21608;DHT22;10966;51.076;3.782;2022-07-03T13:16:47;23.60;99.90
21608;DHT22;10966;51.076;3.782;2022-07-03T13:19:21;23.20;99.90
21608;DHT22;10966;51.076;3.782;2022-07-03T13:21:48;23.80;99.90
21608;DHT22;10966;51.076;3.782;2022-07-03T13:24:16;22.90;99.90
21608;DHT22;10966;51.076;3.782;2022-07-03T13:26:42;22.60;99.90
21608;DHT22;10966;51.076;3.782;2022-07-03T13:29:08;24.60;99.90
21608;DHT22;10966;51.076;3.782;2022-07-03T13:31:34;25.30;99.90
21608;DHT22;10966;51.076;3.782;2022-07-03T13:33:59;25.60;99.90
21608;DHT22;10966;51.076;3.782;2022-07-03T13:36:26;24.60;99.90
21608;DHT22;10966;51.076;3.782;2022-07-03T13:38:52;24.00;99.90
21608;DHT22;10966;51.076;3.782;2022-07-03T13:41:18;23.90;99.90
21608;DHT22;10966;51.076;3.782;2022-07-03T13:43:46;23.90;99.90
21608;DHT22;10966;51.076;3.782;2022-07-03T13:46:12;23.40;99.90
21608;DHT22;10966;51.076;3.782;2022-07-03T13:48:39;24.40;99.90
21608;DHT22;10966;51.076;3.782;2022-07-03T13:51:05;23.50;99.90
21608;DHT22;10966;51.076;3.782;2022-07-03T13:53:30;23.70;99.90
21608;DHT22;10966;51.076;3.782;2022-07-03T13:55:56;22.80;99.90
21608;DHT22;10966;51.076;3.782;2022-07-03T13:58:23;22.30;99.90
21608;DHT22;10966;51.076;3.782;2022-07-03T14:00:49;23.00;99.90
21608;DHT22;10966;51.076;3.782;2022-07-03T14:03:15;22.70;99.90
21608;DHT22;10966;51.076;3.782;2022-07-03T14:05:41;23.10;99.90
21608;DHT22;10966;51.076;3.782;2022-07-03T14:08:06;23.20;99.90
21608;DHT22;10966;51.076;3.782;2022-07-03T14:10:32;23.40;99.90
21608;DHT22;10966;51.076;3.782;2022-07-03T14:12:58;23.60;99.90
21608;DHT22;10966;51.076;3.782;2022-07-03T14:15:23;22.60;99.90
21608;DHT22;10966;51.076;3.782;2022-07-03T14:17:49;22.50;99.90
21608;DHT22;10966;51.076;3.782;2022-07-03T14:20:15;22.00;99.90
21608;DHT22;10966;51.076;3.782;2022-07-03T14:22:40;22.20;99.90
21608;DHT22;10966;51.076;3.782;2022-07-03T14:25:06;23.00;99.90
21608;DHT22;10966;51.076;3.782;2022-07-03T14:27:32;24.10;99.90
21608;DHT22;10966;51.076;3.782;2022-07-03T14:30:17;24.30;99.90
21608;DHT22;10966;51.076;3.782;2022-07-03T14:33:01;23.80;99.90
21608;DHT22;10966;51.076;3.782;2022-07-03T14:35:26;24.10;99.90
21608;DHT22;10966;51.076;3.782;2022-07-03T14:37:52;26.70;99.90
21608;DHT22;10966;51.076;3.782;2022-07-03T14:40:18;26.10;99.90
21608;DHT22;10966;51.076;3.782;2022-07-03T14:42:43;26.80;99.00
21608;DHT22;10966;51.076;3.782;2022-07-03T14:45:09;25.60;99.90
21608;DHT22;10966;51.076;3.782;2022-07-03T14:47:35;25.20;99.10
21608;DHT22;10966;51.076;3.782;2022-07-03T14:50:01;25.10;99.20
21608;DHT22;10966;51.076;3.782;2022-07-03T14:52:27;24.30;99.80
21608;DHT22;10966;51.076;3.782;2022-07-03T14:54:54;23.70;99.90
21608;DHT22;10966;51.076;3.782;2022-07-03T15:00:09;23.40;99.90
21608;DHT22;10966;51.076;3.782;2022-07-03T15:05:27;22.90;99.90
21608;DHT22;10966;51.076;3.782;2022-07-03T15:07:59;23.70;99.90
21608;DHT22;10966;51.076;3.782;2022-07-03T15:10:32;23.50;99.90
21608;DHT22;10966;51.076;3.782;2022-07-03T15:13:00;23.20;99.90
21608;DHT22;10966;51.076;3.782;2022-07-03T15:15:25;23.90;99.90
21608;DHT22;10966;51.076;3.782;2022-07-03T15:17:52;23.60;99.90
21608;DHT22;10966;51.076;3.782;2022-07-03T15:20:19;23.50;99.90
21608;DHT22;10966;51.076;3.782;2022-07-03T15:22:47;24.20;99.90
21608;DHT22;10966;51.076;3.782;2022-07-03T15:25:16;26.00;99.90
21608;DHT22;10966;51.076;3.782;2022-07-03T15:27:46;24.90;99.90
21608;DHT22;10966;51.076;3.782;2022-07-03T15:30:15;24.10;99.90
21608;DHT22;10966;51.076;3.782;2022-07-03T15:32:45;24.00;99.90
21608;DHT22;10966;51.076;3.782;2022-07-03T15:35:12;24.00;99.90
21608;DHT22;10966;51.076;3.782;2022-07-03T15:43:41;23.30;99.90
21608;DHT22;10966;51.076;3.782;2022-07-03T15:49:28;23.30;99.90
21608;DHT22;10966;51.076;3.782;2022-07-03T15:52:03;23.10;99.90
21608;DHT22;10966;51.076;3.782;2022-07-03T15:57:03;24.60;99.90
21608;DHT22;10966;51.076;3.782;2022-07-03T15:59:35;24.00;99.90
21608;DHT22;10966;51.076;3.782;2022-07-03T16:02:05;23.70;99.90
21608;DHT22;10966;51.076;3.782;2022-07-03T16:07:18;23.70;99.90
21608;DHT22;10966;51.076;3.782;2022-07-03T16:09:46;23.70;99.90
21608;DHT22;10966;51.076;3.782;2022-07-03T16:12:14;23.80;99.90
21608;DHT22;10966;51.076;3.782;2022-07-03T16:14:48;23.70;99.90
21608;DHT22;10966;51.076;3.782;2022-07-03T16:17:16;23.20;99.90
21608;DHT22;10966;51.076;3.782;2022-07-03T16:19:44;23.20;99.90
21608;DHT22;10966;51.076;3.782;2022-07-03T16:22:11;23.10;99.90
21608;DHT22;10966;51.076;3.782;2022-07-03T16:24:37;23.90;99.90
21608;DHT22;10966;51.076;3.782;2022-07-03T16:27:04;24.20;99.90
21608;DHT22;10966;51.076;3.782;2022-07-03T16:29:30;24.60;99.90
21608;DHT22;10966;51.076;3.782;2022-07-03T16:31:55;26.30;99.90
21608;DHT22;10966;51.076;3.782;2022-07-03T16:36:58;27.50;99.90
21608;DHT22;10966;51.076;3.782;2022-07-03T16:39:33;25.10;99.90
21608;DHT22;10966;51.076;3.782;2022-07-03T16:42:00;24.10;99.90
21608;DHT22;10966;51.076;3.782;2022-07-03T16:44:27;23.70;99.90
21608;DHT22;10966;51.076;3.782;2022-07-03T16:46:55;23.40;99.90
21608;DHT22;10966;51.076;3.782;2022-07-03T16:49:23;23.20;99.90
21608;DHT22;10966;51.076;3.782;2022-07-03T16:52:07;22.70;99.90
21608;DHT22;10966;51.076;3.782;2022-07-03T16:54:33;23.10;99.90